sensor_id;sensor_type;location;lat;lon;timestamp;P1;durP1;ratioP1;P2;durP2;ratioP2
10586;SDS011;5341;47.606;7.576;2023-10-08T00:00:43;6.13;;;4.53;;
10586;SDS011;5341;47.606;7.576;2023-10-08T00:03:14;5.60;;;4.00;;
10586;SDS011;5341;47.606;7.576;2023-10-08T00:05:43;6.50;;;4.50;;
10586;SDS011;5341;47.606;7.576;2023-10-08T00:08:12;6.30;;;4.18;;
10586;SDS011;5341;47.606;7.576;2023-10-08T00:10:42;6.75;;;4.35;;
10586;SDS011;5341;47.606;7.576;2023-10-08T00:13:12;5.13;;;3.90;;
10586;SDS011;5341;47.606;7.576;2023-10-08T00:15:41;5.30;;;4.18;;
10586;SDS011;5341;47.606;7.576;2023-10-08T00:18:18;5.78;;;4.10;;
10586;SDS011;5341;47.606;7.576;2023-10-08T00:20:45;6.00;;;4.28;;
10586;SDS011;5341;47.606;7.576;2023-10-08T00:23:20;7.13;;;3.80;;
10586;SDS011;5341;47.606;7.576;2023-10-08T00:25:51;6.28;;;4.13;;
10586;SDS011;5341;47.606;7.576;2023-10-08T00:28:20;5.68;;;4.28;;
10586;SDS011;5341;47.606;7.576;2023-10-08T00:30:48;5.28;;;3.90;;
10586;SDS011;5341;47.606;7.576;2023-10-08T00:33:15;5.28;;;4.15;;
10586;SDS011;5341;47.606;7.576;2023-10-08T00:35:44;6.70;;;4.40;;
10586;SDS011;5341;47.606;7.576;2023-10-08T00:38:13;6.43;;;4.43;;
10586;SDS011;5341;47.606;7.576;2023-10-08T00:40:45;6.53;;;4.45;;
10586;SDS011;5341;47.606;7.576;2023-10-08T00:43:31;7.30;;;4.40;;
10586;SDS011;5341;47.606;7.576;2023-10-08T00:46:00;5.78;;;4.05;;
10586;SDS011;5341;47.606;7.576;2023-10-08T00:48:28;6.25;;;4.25;;
10586;SDS011;5341;47.606;7.576;2023-10-08T00:51:01;6.68;;;4.43;;
10586;SDS011;5341;47.606;7.576;2023-10-08T00:53:42;5.43;;;4.20;;
10586;SDS011;5341;47.606;7.576;2023-10-08T00:56:10;6.20;;;4.43;;
10586;SDS011;5341;47.606;7.576;2023-10-08T00:58:41;5.88;;;4.40;;
10586;SDS011;5341;47.606;7.576;2023-10-08T01:01:12;6.35;;;4.63;;
10586;SDS011;5341;47.606;7.576;2023-10-08T01:03:42;5.70;;;4.35;;
10586;SDS011;5341;47.606;7.576;2023-10-08T01:06:10;6.72;;;4.30;;
10586;SDS011;5341;47.606;7.576;2023-10-08T01:08:43;5.65;;;4.13;;
10586;SDS011;5341;47.606;7.576;2023-10-08T01:11:16;6.65;;;4.28;;
10586;SDS011;5341;47.606;7.576;2023-10-08T01:13:47;6.53;;;4.68;;
10586;SDS011;5341;47.606;7.576;2023-10-08T01:16:15;5.82;;;4.30;;
10586;SDS011;5341;47.606;7.576;2023-10-08T01:18:43;7.97;;;4.55;;
10586;SDS011;5341;47.606;7.576;2023-10-08T01:21:16;5.80;;;4.20;;
10586;SDS011;5341;47.606;7.576;2023-10-08T01:24:02;5.60;;;4.10;;
10586;SDS011;5341;47.606;7.576;2023-10-08T01:26:32;7.35;;;4.22;;
10586;SDS011;5341;47.606;7.576;2023-10-08T01:29:04;6.45;;;4.28;;
10586;SDS011;5341;47.606;7.576;2023-10-08T01:31:37;5.97;;;4.53;;
10586;SDS011;5341;47.606;7.576;2023-10-08T01:34:05;6.55;;;4.53;;
10586;SDS011;5341;47.606;7.576;2023-10-08T01:36:34;5.88;;;4.45;;
10586;SDS011;5341;47.606;7.576;2023-10-08T01:39:03;6.30;;;4.85;;
10586;SDS011;5341;47.606;7.576;2023-10-08T01:41:35;6.18;;;4.28;;
10586;SDS011;5341;47.606;7.576;2023-10-08T01:44:06;7.13;;;4.65;;
10586;SDS011;5341;47.606;7.576;2023-10-08T01:46:34;5.38;;;4.38;;
10586;SDS011;5341;47.606;7.576;2023-10-08T01:49:02;7.25;;;4.85;;
10586;SDS011;5341;47.606;7.576;2023-10-08T01:51:35;5.97;;;4.03;;
10586;SDS011;5341;47.606;7.576;2023-10-08T01:54:06;6.18;;;4.43;;
10586;SDS011;5341;47.606;7.576;2023-10-08T01:56:36;5.65;;;4.38;;
10586;SDS011;5341;47.606;7.576;2023-10-08T01:59:07;9.15;;;4.78;;
10586;SDS011;5341;47.606;7.576;2023-10-08T02:01:35;5.40;;;4.03;;
10586;SDS011;5341;47.606;7.576;2023-10-08T02:04:05;6.85;;;4.57;;
10586;SDS011;5341;47.606;7.576;2023-10-08T02:06:35;5.63;;;4.22;;
10586;SDS011;5341;47.606;7.576;2023-10-08T02:09:02;5.82;;;4.30;;
10586;SDS011;5341;47.606;7.576;2023-10-08T02:11:42;7.18;;;5.13;;
10586;SDS011;5341;47.606;7.576;2023-10-08T02:14:10;7.82;;;4.57;;
10586;SDS011;5341;47.606;7.576;2023-10-08T02:16:40;5.93;;;4.22;;
10586;SDS011;5341;47.606;7.576;2023-10-08T02:19:10;6.57;;;4.63;;
10586;SDS011;5341;47.606;7.576;2023-10-08T02:21:37;6.20;;;4.50;;
10586;SDS011;5341;47.606;7.576;2023-10-08T02:24:07;7.90;;;4.78;;
10586;SDS011;5341;47.606;7.576;2023-10-08T02:26:37;5.28;;;4.15;;
10586;SDS011;5341;47.606;7.576;2023-10-08T02:29:07;5.57;;;4.10;;
10586;SDS011;5341;47.606;7.576;2023-10-08T02:31:37;6.15;;;4.40;;
10586;SDS011;5341;47.606;7.576;2023-10-08T02:34:05;6.22;;;4.55;;
10586;SDS011;5341;47.606;7.576;2023-10-08T02:36:34;5.63;;;4.20;;
10586;SDS011;5341;47.606;7.576;2023-10-08T02:39:03;7.22;;;4.68;;
10586;SDS011;5341;47.606;7.576;2023-10-08T02:41:39;5.97;;;4.47;;
10586;SDS011;5341;47.606;7.576;2023-10-08T02:44:09;6.13;;;4.40;;
10586;SDS011;5341;47.606;7.576;2023-10-08T02:46:39;5.57;;;4.57;;
10586;SDS011;5341;47.606;7.576;2023-10-08T02:49:08;5.78;;;4.47;;
10586;SDS011;5341;47.606;7.576;2023-10-08T02:51:38;7.25;;;4.47;;
10586;SDS011;5341;47.606;7.576;2023-10-08T02:54:07;7.78;;;4.57;;
10586;SDS011;5341;47.606;7.576;2023-10-08T02:56:42;6.85;;;4.60;;
10586;SDS011;5341;47.606;7.576;2023-10-08T02:59:13;4.78;;;4.03;;
10586;SDS011;5341;47.606;7.576;2023-10-08T03:01:41;6.50;;;4.30;;
10586;SDS011;5341;47.606;7.576;2023-10-08T03:04:09;5.55;;;4.40;;
10586;SDS011;5341;47.606;7.576;2023-10-08T03:06:45;7.35;;;4.18;;
10586;SDS011;5341;47.606;7.576;2023-10-08T03:09:16;5.68;;;4.50;;
10586;SDS011;5341;47.606;7.576;2023-10-08T03:11:48;5.70;;;4.43;;
10586;SDS011;5341;47.606;7.576;2023-10-08T03:14:18;6.07;;;4.22;;
10586;SDS011;5341;47.606;7.576;2023-10-08T03:16:49;5.40;;;4.07;;
10586;SDS011;5341;47.606;7.576;2023-10-08T03:19:17;6.72;;;4.50;;
10586;SDS011;5341;47.606;7.576;2023-10-08T03:21:48;5.68;;;4.30;;
10586;SDS011;5341;47.606;7.576;2023-10-08T03:24:21;5.22;;;4.10;;
10586;SDS011;5341;47.606;7.576;2023-10-08T03:27:03;5.47;;;4.22;;
10586;SDS011;5341;47.606;7.576;2023-10-08T03:29:40;5.13;;;4.10;;
10586;SDS011;5341;47.606;7.576;2023-10-08T03:32:11;5.55;;;4.20;;
10586;SDS011;5341;47.606;7.576;2023-10-08T03:34:44;6.45;;;4.38;;
10586;SDS011;5341;47.606;7.576;2023-10-08T03:37:13;6.88;;;4.57;;
10586;SDS011;5341;47.606;7.576;2023-10-08T03:39:54;5.40;;;4.00;;
10586;SDS011;5341;47.606;7.576;2023-10-08T03:42:50;7.40;;;4.40;;
10586;SDS011;5341;47.606;7.576;2023-10-08T03:45:23;6.00;;;4.32;;
10586;SDS011;5341;47.606;7.576;2023-10-08T03:48:07;6.28;;;4.47;;
10586;SDS011;5341;47.606;7.576;2023-10-08T03:50:40;6.50;;;4.53;;
10586;SDS011;5341;47.606;7.576;2023-10-08T03:53:08;5.68;;;4.20;;
10586;SDS011;5341;47.606;7.576;2023-10-08T03:55:37;5.90;;;4.47;;
10586;SDS011;5341;47.606;7.576;2023-10-08T03:58:06;7.50;;;4.60;;
10586;SDS011;5341;47.606;7.576;2023-10-08T04:00:50;7.32;;;4.22;;
10586;SDS011;5341;47.606;7.576;2023-10-08T04:03:32;5.85;;;4.13;;
10586;SDS011;5341;47.606;7.576;2023-10-08T04:06:17;7.65;;;4.57;;
10586;SDS011;5341;47.606;7.576;2023-10-08T04:08:48;6.28;;;4.35;;
10586;SDS011;5341;47.606;7.576;2023-10-08T04:11:30;6.65;;;4.30;;
10586;SDS011;5341;47.606;7.576;2023-10-08T04:14:00;7.22;;;4.65;;
10586;SDS011;5341;47.606;7.576;2023-10-08T04:16:31;5.22;;;4.10;;
10586;SDS011;5341;47.606;7.576;2023-10-08T04:19:02;6.70;;;4.80;;
10586;SDS011;5341;47.606;7.576;2023-10-08T04:21:30;7.57;;;4.93;;
10586;SDS011;5341;47.606;7.576;2023-10-08T04:23:59;6.28;;;4.60;;
10586;SDS011;5341;47.606;7.576;2023-10-08T04:26:29;7.32;;;4.82;;
10586;SDS011;5341;47.606;7.576;2023-10-08T04:28:59;7.68;;;4.68;;
10586;SDS011;5341;47.606;7.576;2023-10-08T04:31:28;6.95;;;4.57;;
10586;SDS011;5341;47.606;7.576;2023-10-08T04:34:03;5.95;;;4.13;;
10586;SDS011;5341;47.606;7.576;2023-10-08T04:36:41;6.35;;;3.90;;
10586;SDS011;5341;47.606;7.576;2023-10-08T04:39:10;5.63;;;4.28;;
10586;SDS011;5341;47.606;7.576;2023-10-08T04:41:41;6.25;;;4.32;;
10586;SDS011;5341;47.606;7.576;2023-10-08T04:44:09;5.53;;;4.22;;
10586;SDS011;5341;47.606;7.576;2023-10-08T04:46:42;6.40;;;4.63;;
10586;SDS011;5341;47.606;7.576;2023-10-08T04:49:17;5.78;;;4.28;;
10586;SDS011;5341;47.606;7.576;2023-10-08T04:51:54;7.32;;;4.60;;
10586;SDS011;5341;47.606;7.576;2023-10-08T04:54:24;6.20;;;4.32;;
10586;SDS011;5341;47.606;7.576;2023-10-08T04:56:56;5.82;;;3.90;;
10586;SDS011;5341;47.606;7.576;2023-10-08T04:59:25;6.03;;;4.43;;
10586;SDS011;5341;47.606;7.576;2023-10-08T05:02:00;6.22;;;4.60;;
10586;SDS011;5341;47.606;7.576;2023-10-08T05:04:45;6.45;;;4.15;;
10586;SDS011;5341;47.606;7.576;2023-10-08T05:07:22;6.65;;;4.40;;
10586;SDS011;5341;47.606;7.576;2023-10-08T05:10:03;6.18;;;4.57;;
10586;SDS011;5341;47.606;7.576;2023-10-08T05:12:57;7.22;;;4.40;;
10586;SDS011;5341;47.606;7.576;2023-10-08T05:15:41;6.45;;;4.75;;
10586;SDS011;5341;47.606;7.576;2023-10-08T05:18:29;6.53;;;4.45;;
10586;SDS011;5341;47.606;7.576;2023-10-08T05:21:25;7.05;;;4.68;;
10586;SDS011;5341;47.606;7.576;2023-10-08T05:23:51;7.85;;;4.85;;
10586;SDS011;5341;47.606;7.576;2023-10-08T05:26:38;6.13;;;4.25;;
10586;SDS011;5341;47.606;7.576;2023-10-08T05:29:09;7.05;;;4.40;;
10586;SDS011;5341;47.606;7.576;2023-10-08T05:32:05;8.05;;;4.78;;
10586;SDS011;5341;47.606;7.576;2023-10-08T05:35:06;6.00;;;4.50;;
10586;SDS011;5341;47.606;7.576;2023-10-08T05:37:51;7.32;;;4.10;;
10586;SDS011;5341;47.606;7.576;2023-10-08T05:40:38;7.32;;;4.63;;
10586;SDS011;5341;47.606;7.576;2023-10-08T05:43:30;7.15;;;4.53;;
10586;SDS011;5341;47.606;7.576;2023-10-08T05:46:39;7.03;;;4.78;;
10586;SDS011;5341;47.606;7.576;2023-10-08T05:49:32;6.15;;;4.05;;
10586;SDS011;5341;47.606;7.576;2023-10-08T05:52:20;5.93;;;4.32;;
10586;SDS011;5341;47.606;7.576;2023-10-08T05:55:06;7.05;;;4.25;;
10586;SDS011;5341;47.606;7.576;2023-10-08T05:57:47;7.60;;;4.28;;
10586;SDS011;5341;47.606;7.576;2023-10-08T06:00:18;4.82;;;4.03;;
10586;SDS011;5341;47.606;7.576;2023-10-08T06:03:02;7.75;;;4.55;;
10586;SDS011;5341;47.606;7.576;2023-10-08T06:05:58;6.40;;;3.97;;
10586;SDS011;5341;47.606;7.576;2023-10-08T06:08:45;5.95;;;4.32;;
10586;SDS011;5341;47.606;7.576;2023-10-08T06:11:29;6.07;;;4.10;;
10586;SDS011;5341;47.606;7.576;2023-10-08T06:14:07;6.00;;;4.32;;
10586;SDS011;5341;47.606;7.576;2023-10-08T06:16:42;7.03;;;4.60;;
10586;SDS011;5341;47.606;7.576;2023-10-08T06:19:12;5.47;;;3.95;;
10586;SDS011;5341;47.606;7.576;2023-10-08T06:21:40;6.22;;;4.40;;
10586;SDS011;5341;47.606;7.576;2023-10-08T06:24:12;5.53;;;3.80;;
10586;SDS011;5341;47.606;7.576;2023-10-08T06:26:42;5.28;;;4.10;;
10586;SDS011;5341;47.606;7.576;2023-10-08T06:29:14;6.03;;;4.30;;
10586;SDS011;5341;47.606;7.576;2023-10-08T06:31:55;7.15;;;4.43;;
10586;SDS011;5341;47.606;7.576;2023-10-08T06:34:27;5.55;;;4.40;;
10586;SDS011;5341;47.606;7.576;2023-10-08T06:36:57;5.03;;;3.65;;
10586;SDS011;5341;47.606;7.576;2023-10-08T06:39:28;6.13;;;3.95;;
10586;SDS011;5341;47.606;7.576;2023-10-08T06:42:12;6.95;;;4.45;;
10586;SDS011;5341;47.606;7.576;2023-10-08T06:44:40;8.40;;;4.07;;
10586;SDS011;5341;47.606;7.576;2023-10-08T06:47:12;7.13;;;4.95;;
10586;SDS011;5341;47.606;7.576;2023-10-08T06:49:41;5.55;;;4.45;;
10586;SDS011;5341;47.606;7.576;2023-10-08T06:52:09;6.13;;;4.45;;
10586;SDS011;5341;47.606;7.576;2023-10-08T06:54:40;6.50;;;4.90;;
10586;SDS011;5341;47.606;7.576;2023-10-08T06:57:08;8.65;;;4.70;;
10586;SDS011;5341;47.606;7.576;2023-10-08T06:59:39;6.13;;;4.70;;
10586;SDS011;5341;47.606;7.576;2023-10-08T07:02:08;7.72;;;5.05;;
10586;SDS011;5341;47.606;7.576;2023-10-08T07:04:36;6.35;;;4.47;;
10586;SDS011;5341;47.606;7.576;2023-10-08T07:07:05;7.57;;;4.60;;
10586;SDS011;5341;47.606;7.576;2023-10-08T07:09:35;7.38;;;4.47;;
10586;SDS011;5341;47.606;7.576;2023-10-08T07:12:04;6.78;;;5.13;;
10586;SDS011;5341;47.606;7.576;2023-10-08T07:14:39;6.63;;;4.65;;
10586;SDS011;5341;47.606;7.576;2023-10-08T07:17:07;6.40;;;4.75;;
10586;SDS011;5341;47.606;7.576;2023-10-08T07:19:37;6.53;;;4.63;;
10586;SDS011;5341;47.606;7.576;2023-10-08T07:22:07;7.95;;;4.68;;
10586;SDS011;5341;47.606;7.576;2023-10-08T07:24:47;7.35;;;4.65;;
10586;SDS011;5341;47.606;7.576;2023-10-08T07:27:18;7.90;;;5.07;;
10586;SDS011;5341;47.606;7.576;2023-10-08T07:29:49;7.60;;;4.72;;
10586;SDS011;5341;47.606;7.576;2023-10-08T07:32:21;8.48;;;5.40;;
10586;SDS011;5341;47.606;7.576;2023-10-08T07:34:50;7.65;;;4.82;;
10586;SDS011;5341;47.606;7.576;2023-10-08T07:37:23;6.82;;;4.63;;
10586;SDS011;5341;47.606;7.576;2023-10-08T07:39:51;7.50;;;4.63;;
10586;SDS011;5341;47.606;7.576;2023-10-08T07:42:22;8.48;;;4.50;;
10586;SDS011;5341;47.606;7.576;2023-10-08T07:44:51;7.10;;;4.60;;
10586;SDS011;5341;47.606;7.576;2023-10-08T07:47:20;7.50;;;4.18;;
10586;SDS011;5341;47.606;7.576;2023-10-08T07:49:48;7.65;;;4.70;;
10586;SDS011;5341;47.606;7.576;2023-10-08T07:52:17;6.63;;;4.30;;
10586;SDS011;5341;47.606;7.576;2023-10-08T07:54:45;5.65;;;4.28;;
10586;SDS011;5341;47.606;7.576;2023-10-08T07:57:13;8.73;;;4.90;;
10586;SDS011;5341;47.606;7.576;2023-10-08T07:59:46;5.60;;;3.92;;
10586;SDS011;5341;47.606;7.576;2023-10-08T08:02:14;6.57;;;4.43;;
10586;SDS011;5341;47.606;7.576;2023-10-08T08:04:43;6.97;;;4.75;;
10586;SDS011;5341;47.606;7.576;2023-10-08T08:07:12;7.35;;;4.50;;
10586;SDS011;5341;47.606;7.576;2023-10-08T08:09:41;7.10;;;4.40;;
10586;SDS011;5341;47.606;7.576;2023-10-08T08:12:16;8.20;;;4.95;;
10586;SDS011;5341;47.606;7.576;2023-10-08T08:14:46;6.30;;;5.10;;
10586;SDS011;5341;47.606;7.576;2023-10-08T08:17:13;8.55;;;4.95;;
10586;SDS011;5341;47.606;7.576;2023-10-08T08:19:42;6.80;;;4.60;;
10586;SDS011;5341;47.606;7.576;2023-10-08T08:22:12;6.70;;;4.90;;
10586;SDS011;5341;47.606;7.576;2023-10-08T08:24:46;7.15;;;4.55;;
10586;SDS011;5341;47.606;7.576;2023-10-08T08:27:18;6.60;;;4.55;;
10586;SDS011;5341;47.606;7.576;2023-10-08T08:29:58;8.20;;;4.80;;
10586;SDS011;5341;47.606;7.576;2023-10-08T08:32:35;10.27;;;5.20;;
10586;SDS011;5341;47.606;7.576;2023-10-08T08:35:05;7.65;;;4.82;;
10586;SDS011;5341;47.606;7.576;2023-10-08T08:37:35;6.57;;;4.85;;
10586;SDS011;5341;47.606;7.576;2023-10-08T08:40:04;10.55;;;4.60;;
10586;SDS011;5341;47.606;7.576;2023-10-08T08:42:34;9.05;;;5.07;;
10586;SDS011;5341;47.606;7.576;2023-10-08T08:45:06;7.38;;;5.15;;
10586;SDS011;5341;47.606;7.576;2023-10-08T08:47:40;8.23;;;5.05;;
10586;SDS011;5341;47.606;7.576;2023-10-08T08:50:08;6.68;;;4.60;;
10586;SDS011;5341;47.606;7.576;2023-10-08T08:52:36;8.13;;;5.15;;
10586;SDS011;5341;47.606;7.576;2023-10-08T08:55:07;8.23;;;5.00;;
10586;SDS011;5341;47.606;7.576;2023-10-08T08:57:40;5.90;;;4.63;;
10586;SDS011;5341;47.606;7.576;2023-10-08T09:00:11;8.05;;;4.63;;
10586;SDS011;5341;47.606;7.576;2023-10-08T09:02:42;10.00;;;5.25;;
10586;SDS011;5341;47.606;7.576;2023-10-08T09:05:13;7.70;;;4.88;;
10586;SDS011;5341;47.606;7.576;2023-10-08T09:07:53;11.20;;;4.78;;
10586;SDS011;5341;47.606;7.576;2023-10-08T09:10:22;7.82;;;4.88;;
10586;SDS011;5341;47.606;7.576;2023-10-08T09:12:53;6.65;;;5.00;;
10586;SDS011;5341;47.606;7.576;2023-10-08T09:15:25;8.73;;;4.78;;
10586;SDS011;5341;47.606;7.576;2023-10-08T09:17:53;9.23;;;5.10;;
10586;SDS011;5341;47.606;7.576;2023-10-08T09:20:21;8.32;;;5.05;;
10586;SDS011;5341;47.606;7.576;2023-10-08T09:22:59;7.35;;;5.18;;
10586;SDS011;5341;47.606;7.576;2023-10-08T09:25:37;6.50;;;4.90;;
10586;SDS011;5341;47.606;7.576;2023-10-08T09:28:05;7.57;;;4.95;;
10586;SDS011;5341;47.606;7.576;2023-10-08T09:30:35;7.18;;;5.00;;
10586;SDS011;5341;47.606;7.576;2023-10-08T09:33:04;8.00;;;4.55;;
10586;SDS011;5341;47.606;7.576;2023-10-08T09:35:32;6.38;;;4.50;;
10586;SDS011;5341;47.606;7.576;2023-10-08T09:38:02;12.35;;;5.30;;
10586;SDS011;5341;47.606;7.576;2023-10-08T09:40:30;9.60;;;6.00;;
10586;SDS011;5341;47.606;7.576;2023-10-08T09:42:58;10.13;;;5.25;;
10586;SDS011;5341;47.606;7.576;2023-10-08T09:45:29;8.18;;;4.75;;
10586;SDS011;5341;47.606;7.576;2023-10-08T09:47:59;9.13;;;5.82;;
10586;SDS011;5341;47.606;7.576;2023-10-08T09:50:35;7.85;;;4.90;;
10586;SDS011;5341;47.606;7.576;2023-10-08T09:53:07;9.45;;;5.30;;
10586;SDS011;5341;47.606;7.576;2023-10-08T09:55:43;9.77;;;5.07;;
10586;SDS011;5341;47.606;7.576;2023-10-08T09:58:14;7.05;;;5.15;;
10586;SDS011;5341;47.606;7.576;2023-10-08T10:00:43;9.32;;;5.05;;
10586;SDS011;5341;47.606;7.576;2023-10-08T10:03:15;7.88;;;4.72;;
10586;SDS011;5341;47.606;7.576;2023-10-08T10:05:44;9.65;;;5.20;;
10586;SDS011;5341;47.606;7.576;2023-10-08T10:08:12;7.60;;;4.95;;
10586;SDS011;5341;47.606;7.576;2023-10-08T10:10:41;7.20;;;4.82;;
10586;SDS011;5341;47.606;7.576;2023-10-08T10:13:14;9.57;;;5.40;;
10586;SDS011;5341;47.606;7.576;2023-10-08T10:15:44;10.73;;;5.10;;
10586;SDS011;5341;47.606;7.576;2023-10-08T10:18:12;9.00;;;4.72;;
10586;SDS011;5341;47.606;7.576;2023-10-08T10:20:57;7.75;;;4.80;;
10586;SDS011;5341;47.606;7.576;2023-10-08T10:23:35;13.45;;;5.43;;
10586;SDS011;5341;47.606;7.576;2023-10-08T10:26:05;9.43;;;5.10;;
10586;SDS011;5341;47.606;7.576;2023-10-08T10:31:52;10.23;;;5.07;;
10586;SDS011;5341;47.606;7.576;2023-10-08T10:34:24;10.10;;;5.25;;
10586;SDS011;5341;47.606;7.576;2023-10-08T10:36:54;9.55;;;5.05;;
10586;SDS011;5341;47.606;7.576;2023-10-08T10:39:24;8.82;;;4.93;;
10586;SDS011;5341;47.606;7.576;2023-10-08T10:41:54;7.25;;;4.90;;
10586;SDS011;5341;47.606;7.576;2023-10-08T10:44:27;9.15;;;5.05;;
10586;SDS011;5341;47.606;7.576;2023-10-08T10:46:56;8.40;;;4.57;;
10586;SDS011;5341;47.606;7.576;2023-10-08T10:49:39;11.90;;;5.18;;
10586;SDS011;5341;47.606;7.576;2023-10-08T10:52:19;9.70;;;4.90;;
10586;SDS011;5341;47.606;7.576;2023-10-08T10:55:00;9.43;;;4.72;;
10586;SDS011;5341;47.606;7.576;2023-10-08T10:57:44;7.70;;;5.05;;
10586;SDS011;5341;47.606;7.576;2023-10-08T11:00:20;9.18;;;4.93;;
10586;SDS011;5341;47.606;7.576;2023-10-08T11:03:03;10.00;;;4.70;;
10586;SDS011;5341;47.606;7.576;2023-10-08T11:05:43;8.48;;;5.25;;
10586;SDS011;5341;47.606;7.576;2023-10-08T11:08:16;9.00;;;5.05;;
10586;SDS011;5341;47.606;7.576;2023-10-08T11:10:48;9.18;;;4.43;;
10586;SDS011;5341;47.606;7.576;2023-10-08T11:13:21;12.85;;;5.20;;
10586;SDS011;5341;47.606;7.576;2023-10-08T11:15:54;8.77;;;4.85;;
10586;SDS011;5341;47.606;7.576;2023-10-08T11:18:23;11.18;;;5.45;;
10586;SDS011;5341;47.606;7.576;2023-10-08T11:21:05;10.50;;;4.60;;
10586;SDS011;5341;47.606;7.576;2023-10-08T11:23:41;7.88;;;4.53;;
10586;SDS011;5341;47.606;7.576;2023-10-08T11:26:12;12.23;;;4.88;;
10586;SDS011;5341;47.606;7.576;2023-10-08T11:28:41;10.13;;;4.47;;
10586;SDS011;5341;47.606;7.576;2023-10-08T11:31:13;12.80;;;4.70;;
10586;SDS011;5341;47.606;7.576;2023-10-08T11:33:45;11.82;;;5.05;;
10586;SDS011;5341;47.606;7.576;2023-10-08T11:36:21;14.20;;;5.15;;
10586;SDS011;5341;47.606;7.576;2023-10-08T11:38:53;11.35;;;5.25;;
10586;SDS011;5341;47.606;7.576;2023-10-08T11:41:26;13.48;;;5.30;;
10586;SDS011;5341;47.606;7.576;2023-10-08T11:43:55;10.23;;;4.90;;
10586;SDS011;5341;47.606;7.576;2023-10-08T11:46:25;13.20;;;5.18;;
10586;SDS011;5341;47.606;7.576;2023-10-08T11:48:58;16.52;;;5.50;;
10586;SDS011;5341;47.606;7.576;2023-10-08T11:51:32;12.02;;;5.07;;
10586;SDS011;5341;47.606;7.576;2023-10-08T11:54:00;12.50;;;4.70;;
10586;SDS011;5341;47.606;7.576;2023-10-08T11:56:28;16.98;;;5.10;;
10586;SDS011;5341;47.606;7.576;2023-10-08T11:58:56;14.88;;;5.32;;
10586;SDS011;5341;47.606;7.576;2023-10-08T12:01:23;12.35;;;5.35;;
10586;SDS011;5341;47.606;7.576;2023-10-08T12:03:52;16.52;;;5.95;;
10586;SDS011;5341;47.606;7.576;2023-10-08T12:06:24;14.65;;;5.28;;
10586;SDS011;5341;47.606;7.576;2023-10-08T12:08:56;15.23;;;5.07;;
10586;SDS011;5341;47.606;7.576;2023-10-08T12:11:25;16.08;;;6.03;;
10586;SDS011;5341;47.606;7.576;2023-10-08T12:13:56;12.32;;;4.97;;
10586;SDS011;5341;47.606;7.576;2023-10-08T12:16:26;13.10;;;5.05;;
10586;SDS011;5341;47.606;7.576;2023-10-08T12:18:55;14.32;;;5.07;;
10586;SDS011;5341;47.606;7.576;2023-10-08T12:21:25;13.75;;;5.32;;
10586;SDS011;5341;47.606;7.576;2023-10-08T12:23:56;9.45;;;4.70;;
10586;SDS011;5341;47.606;7.576;2023-10-08T12:26:24;11.80;;;4.95;;
10586;SDS011;5341;47.606;7.576;2023-10-08T12:28:52;15.68;;;4.97;;
10586;SDS011;5341;47.606;7.576;2023-10-08T12:31:21;15.43;;;4.70;;
10586;SDS011;5341;47.606;7.576;2023-10-08T12:33:49;17.13;;;4.95;;
10586;SDS011;5341;47.606;7.576;2023-10-08T12:36:19;13.88;;;5.22;;
10586;SDS011;5341;47.606;7.576;2023-10-08T12:38:48;11.75;;;4.80;;
10586;SDS011;5341;47.606;7.576;2023-10-08T12:41:24;10.55;;;4.78;;
10586;SDS011;5341;47.606;7.576;2023-10-08T12:43:52;12.45;;;4.70;;
10586;SDS011;5341;47.606;7.576;2023-10-08T12:46:20;10.15;;;4.28;;
10586;SDS011;5341;47.606;7.576;2023-10-08T12:48:51;9.18;;;4.25;;
10586;SDS011;5341;47.606;7.576;2023-10-08T12:51:19;11.98;;;4.70;;
10586;SDS011;5341;47.606;7.576;2023-10-08T12:53:50;11.52;;;4.80;;
10586;SDS011;5341;47.606;7.576;2023-10-08T12:56:31;11.82;;;4.82;;
10586;SDS011;5341;47.606;7.576;2023-10-08T12:59:01;13.27;;;4.90;;
10586;SDS011;5341;47.606;7.576;2023-10-08T13:01:32;16.55;;;4.95;;
10586;SDS011;5341;47.606;7.576;2023-10-08T13:04:01;9.57;;;4.28;;
10586;SDS011;5341;47.606;7.576;2023-10-08T13:06:32;13.43;;;4.75;;
10586;SDS011;5341;47.606;7.576;2023-10-08T13:09:03;12.63;;;4.65;;
10586;SDS011;5341;47.606;7.576;2023-10-08T13:11:39;13.90;;;4.57;;
10586;SDS011;5341;47.606;7.576;2023-10-08T13:14:08;12.07;;;4.95;;
10586;SDS011;5341;47.606;7.576;2023-10-08T13:16:36;13.73;;;4.57;;
10586;SDS011;5341;47.606;7.576;2023-10-08T13:19:04;10.23;;;4.35;;
10586;SDS011;5341;47.606;7.576;2023-10-08T13:21:34;13.13;;;4.30;;
10586;SDS011;5341;47.606;7.576;2023-10-08T13:24:02;9.32;;;4.50;;
10586;SDS011;5341;47.606;7.576;2023-10-08T13:26:34;11.88;;;4.82;;
10586;SDS011;5341;47.606;7.576;2023-10-08T13:29:05;12.75;;;4.32;;
10586;SDS011;5341;47.606;7.576;2023-10-08T13:31:34;18.73;;;4.70;;
10586;SDS011;5341;47.606;7.576;2023-10-08T13:34:02;14.35;;;5.22;;
10586;SDS011;5341;47.606;7.576;2023-10-08T13:36:34;17.50;;;5.25;;
10586;SDS011;5341;47.606;7.576;2023-10-08T13:39:05;17.98;;;5.05;;
10586;SDS011;5341;47.606;7.576;2023-10-08T13:41:35;14.93;;;4.43;;
10586;SDS011;5341;47.606;7.576;2023-10-08T13:44:05;20.77;;;5.47;;
10586;SDS011;5341;47.606;7.576;2023-10-08T13:46:33;14.88;;;4.63;;
10586;SDS011;5341;47.606;7.576;2023-10-08T13:49:04;20.80;;;5.55;;
10586;SDS011;5341;47.606;7.576;2023-10-08T13:51:34;20.45;;;5.13;;
10586;SDS011;5341;47.606;7.576;2023-10-08T13:54:03;18.45;;;5.15;;
10586;SDS011;5341;47.606;7.576;2023-10-08T13:56:32;16.38;;;4.57;;
10586;SDS011;5341;47.606;7.576;2023-10-08T13:59:04;16.38;;;5.05;;
10586;SDS011;5341;47.606;7.576;2023-10-08T14:01:38;14.02;;;4.68;;
10586;SDS011;5341;47.606;7.576;2023-10-08T14:04:11;17.27;;;5.05;;
10586;SDS011;5341;47.606;7.576;2023-10-08T14:06:42;19.60;;;4.93;;
10586;SDS011;5341;47.606;7.576;2023-10-08T14:09:13;16.38;;;4.68;;
10586;SDS011;5341;47.606;7.576;2023-10-08T14:11:47;18.48;;;4.63;;
10586;SDS011;5341;47.606;7.576;2023-10-08T14:14:17;12.88;;;4.65;;
10586;SDS011;5341;47.606;7.576;2023-10-08T14:16:45;19.15;;;5.00;;
10586;SDS011;5341;47.606;7.576;2023-10-08T14:19:17;21.38;;;5.35;;
10586;SDS011;5341;47.606;7.576;2023-10-08T14:21:53;17.90;;;5.25;;
10586;SDS011;5341;47.606;7.576;2023-10-08T14:24:28;18.33;;;4.25;;
10586;SDS011;5341;47.606;7.576;2023-10-08T14:26:58;17.95;;;4.93;;
10586;SDS011;5341;47.606;7.576;2023-10-08T14:29:31;22.73;;;5.45;;
10586;SDS011;5341;47.606;7.576;2023-10-08T14:32:00;13.40;;;4.25;;
10586;SDS011;5341;47.606;7.576;2023-10-08T14:34:34;15.27;;;4.85;;
10586;SDS011;5341;47.606;7.576;2023-10-08T14:37:19;17.45;;;4.57;;
10586;SDS011;5341;47.606;7.576;2023-10-08T14:40:04;10.73;;;4.32;;
10586;SDS011;5341;47.606;7.576;2023-10-08T14:42:49;11.50;;;4.25;;
10586;SDS011;5341;47.606;7.576;2023-10-08T14:45:22;21.38;;;4.55;;
10586;SDS011;5341;47.606;7.576;2023-10-08T14:47:52;12.25;;;4.75;;
10586;SDS011;5341;47.606;7.576;2023-10-08T14:50:22;17.65;;;4.65;;
10586;SDS011;5341;47.606;7.576;2023-10-08T14:52:53;18.25;;;4.97;;
10586;SDS011;5341;47.606;7.576;2023-10-08T14:55:22;16.98;;;4.35;;
10586;SDS011;5341;47.606;7.576;2023-10-08T14:57:50;21.35;;;5.00;;
10586;SDS011;5341;47.606;7.576;2023-10-08T15:00:18;17.33;;;5.00;;
10586;SDS011;5341;47.606;7.576;2023-10-08T15:02:52;16.80;;;5.10;;
10586;SDS011;5341;47.606;7.576;2023-10-08T15:05:20;16.10;;;5.03;;
10586;SDS011;5341;47.606;7.576;2023-10-08T15:07:48;19.77;;;4.82;;
10586;SDS011;5341;47.606;7.576;2023-10-08T15:10:17;17.33;;;4.78;;
10586;SDS011;5341;47.606;7.576;2023-10-08T15:12:45;18.33;;;5.10;;
10586;SDS011;5341;47.606;7.576;2023-10-08T15:15:12;18.45;;;5.40;;
10586;SDS011;5341;47.606;7.576;2023-10-08T15:17:40;15.35;;;4.65;;
10586;SDS011;5341;47.606;7.576;2023-10-08T15:20:11;15.02;;;4.68;;
10586;SDS011;5341;47.606;7.576;2023-10-08T15:22:42;19.33;;;5.15;;
10586;SDS011;5341;47.606;7.576;2023-10-08T15:25:10;18.80;;;5.20;;
10586;SDS011;5341;47.606;7.576;2023-10-08T15:27:38;18.65;;;5.00;;
10586;SDS011;5341;47.606;7.576;2023-10-08T15:30:07;26.27;;;5.07;;
10586;SDS011;5341;47.606;7.576;2023-10-08T15:32:38;23.15;;;5.40;;